Time;durP1;ratioP1;P1;durP2;ratioP2;P2;SDS_P1;SDS_P2;PMS_P1;PMS_P2;Temp;Humidity;BMP_temperature;BMP_pressure;BME280_temperature;BME280_humidity;BME280_pressure;Samples;Min_cycle;Max_cycle;Signal;HPM_P1;HPM_P2
2023/11/25 00:00:44;;;;;;;8.05;1.60;;;3.50;99.90;;;;;;5032618;28;20490;-75
2023/11/25 00:03:10;;;;;;;8.38;1.95;;;3.50;99.90;;;;;;5032762;28;20041;-75
2023/11/25 00:05:36;;;;;;;8.75;1.85;;;3.50;99.90;;;;;;5031950;28;20075;-75
2023/11/25 00:08:01;;;;;;;10.98;2.20;;;3.50;99.90;;;;;;5035970;28;20041;-75
2023/11/25 00:10:27;;;;;;;8.48;2.05;;;3.50;99.90;;;;;;5033434;28;20139;-75
2023/11/25 00:12:53;;;;;;;9.68;2.30;;;3.50;99.90;;;;;;5032246;28;20041;-75
2023/11/25 00:15:19;;;;;;;10.68;1.98;;;3.50;99.90;;;;;;5047600;28;20088;-75
2023/11/25 00:17:45;;;;;;;5.95;2.33;;;3.50;99.90;;;;;;5031418;28;20405;-75
2023/11/25 00:20:11;;;;;;;9.20;2.20;;;3.50;99.90;;;;;;5032384;28;20041;-75
2023/11/25 00:22:36;;;;;;;12.40;2.47;;;3.50;99.90;;;;;;5050815;28;20145;-75
2023/11/25 00:25:03;;;;;;;17.20;2.50;;;3.40;99.90;;;;;;5032331;28;20424;-76
2023/11/25 00:27:29;;;;;;;16.30;2.28;;;3.50;99.90;;;;;;5038784;28;20119;-75
2023/11/25 00:29:55;;;;;;;9.70;2.63;;;3.50;99.90;;;;;;5032451;28;20045;-75
2023/11/25 00:32:21;;;;;;;8.98;2.00;;;3.40;99.90;;;;;;5015275;28;20412;-75
2023/11/25 00:34:46;;;;;;;11.82;2.20;;;3.40;99.90;;;;;;5032649;28;20064;-75
2023/11/25 00:37:12;;;;;;;11.90;2.03;;;3.40;99.90;;;;;;5037593;28;20037;-75
2023/11/25 00:39:38;;;;;;;12.95;2.38;;;3.40;99.90;;;;;;5049289;28;20044;-76
2023/11/25 00:42:04;;;;;;;9.00;1.92;;;3.40;99.90;;;;;;5032456;28;20041;-75
2023/11/25 00:44:30;;;;;;;11.65;2.55;;;3.40;99.90;;;;;;5032910;28;20393;-77
2023/11/25 00:46:55;;;;;;;13.77;2.78;;;3.40;99.90;;;;;;5050544;28;20485;-75
2023/11/25 00:49:21;;;;;;;15.05;2.33;;;3.40;99.90;;;;;;5029659;28;20462;-75
2023/11/25 00:51:47;;;;;;;10.02;2.35;;;3.40;99.90;;;;;;5050800;28;20052;-75
2023/11/25 00:54:12;;;;;;;15.73;2.30;;;3.40;99.90;;;;;;5032373;28;20481;-75
2023/11/25 00:56:38;;;;;;;8.80;1.88;;;3.40;99.90;;;;;;5032243;28;20033;-75
2023/11/25 00:59:03;;;;;;;9.95;2.10;;;3.40;99.90;;;;;;5032385;28;20124;-75
2023/11/25 01:01:29;;;;;;;17.20;2.55;;;3.40;99.90;;;;;;5032710;28;20076;-76
2023/11/25 01:03:54;;;;;;;10.20;2.03;;;3.50;99.90;;;;;;5032027;28;20452;-75
2023/11/25 01:06:20;;;;;;;23.15;2.75;;;3.40;99.90;;;;;;5032763;28;20036;-75
2023/11/25 01:08:46;;;;;;;10.82;1.80;;;3.50;99.90;;;;;;5032230;28;20497;-76
2023/11/25 01:11:11;;;;;;;16.50;1.85;;;3.50;99.90;;;;;;5015677;28;20048;-75
2023/11/25 01:13:37;;;;;;;9.80;1.90;;;3.50;99.90;;;;;;5032554;28;20048;-75
2023/11/25 01:16:04;;;;;;;13.32;2.00;;;3.60;99.90;;;;;;5036973;28;20082;-76
2023/11/25 01:18:30;;;;;;;16.40;1.90;;;3.60;99.90;;;;;;5018957;28;20029;-75
2023/11/25 01:20:56;;;;;;;8.40;1.70;;;3.60;99.90;;;;;;5028518;28;20505;-76
2023/11/25 01:23:22;;;;;;;21.25;2.88;;;3.00;99.90;;;;;;5036018;28;20397;-75
2023/11/25 01:25:48;;;;;;;20.10;2.15;;;3.70;99.90;;;;;;5052963;28;20405;-75
2023/11/25 01:28:14;;;;;;;11.57;2.08;;;3.70;99.90;;;;;;5019373;28;20029;-75
2023/11/25 01:30:40;;;;;;;10.65;2.10;;;3.70;99.90;;;;;;5036006;28;20386;-76
2023/11/25 01:33:09;;;;;;;17.00;2.20;;;3.80;99.90;;;;;;5036037;28;20040;-76
2023/11/25 01:35:38;;;;;;;16.33;2.10;;;3.80;99.90;;;;;;5035718;28;20086;-75
2023/11/25 01:38:03;;;;;;;14.88;2.05;;;3.90;99.90;;;;;;5035858;28;20098;-76
2023/11/25 01:40:29;;;;;;;17.70;2.38;;;3.90;99.90;;;;;;5035500;28;20067;-75
2023/11/25 01:42:58;;;;;;;14.43;2.08;;;3.90;99.90;;;;;;5035891;28;20036;-75
2023/11/25 01:45:25;;;;;;;16.15;2.83;;;4.00;99.90;;;;;;5039169;28;20086;-75
2023/11/25 01:47:52;;;;;;;11.98;2.20;;;4.00;99.90;;;;;;5035856;28;20045;-76
2023/11/25 01:50:19;;;;;;;11.40;2.55;;;4.10;99.90;;;;;;5035549;28;20036;-76
2023/11/25 01:52:45;;;;;;;12.65;2.58;;;4.00;99.90;;;;;;5052935;28;20527;-74
2023/11/25 01:55:13;;;;;;;13.05;2.38;;;4.10;99.90;;;;;;5039215;28;20051;-75
2023/11/25 01:57:39;;;;;;;11.38;2.40;;;4.10;99.90;;;;;;5036957;28;20059;-75
2023/11/25 02:00:07;;;;;;;12.82;2.20;;;4.10;99.90;;;;;;5035476;28;20072;-75
2023/11/25 02:02:37;;;;;;;16.88;2.20;;;4.10;99.90;;;;;;5035036;28;20055;-75
2023/11/25 02:05:03;;;;;;;17.25;2.25;;;4.10;99.90;;;;;;5037119;28;20037;-76
2023/11/25 02:07:29;;;;;;;8.55;2.20;;;4.10;99.90;;;;;;5038571;28;20508;-75
2023/11/25 02:09:55;;;;;;;9.82;2.20;;;4.10;99.90;;;;;;5052747;28;20107;-75
2023/11/25 02:12:21;;;;;;;22.42;2.72;;;4.10;99.90;;;;;;5034910;28;20508;-75
2023/11/25 02:14:47;;;;;;;15.43;2.22;;;4.00;99.90;;;;;;5034862;28;20048;-75
2023/11/25 02:17:14;;;;;;;14.52;2.10;;;4.00;99.90;;;;;;5036493;28;20390;-75
2023/11/25 02:19:42;;;;;;;14.35;2.67;;;4.00;99.90;;;;;;5052997;28;20036;-75
2023/11/25 02:22:10;;;;;;;15.07;2.33;;;4.00;99.90;;;;;;5028904;28;20101;-75
2023/11/25 02:24:37;;;;;;;19.52;2.80;;;4.00;99.90;;;;;;5034536;28;20439;-75
2023/11/25 02:27:04;;;;;;;11.77;1.83;;;4.00;99.90;;;;;;5051953;28;20693;-75
2023/11/25 02:29:33;;;;;;;16.75;2.63;;;4.00;99.90;;;;;;5048170;28;20049;-75
2023/11/25 02:32:03;;;;;;;11.43;2.10;;;4.00;99.90;;;;;;5034573;28;20095;-75
2023/11/25 02:34:29;;;;;;;14.88;2.60;;;4.00;99.90;;;;;;5034899;28;20069;-74
2023/11/25 02:36:57;;;;;;;17.60;2.60;;;4.00;99.90;;;;;;5035312;28;20393;-75
2023/11/25 02:39:23;;;;;;;19.83;2.40;;;3.90;99.90;;;;;;5033876;28;20508;-75
2023/11/25 02:41:50;;;;;;;19.30;2.78;;;3.90;99.90;;;;;;5034663;28;20052;-75
2023/11/25 02:44:16;;;;;;;13.57;2.45;;;3.90;99.90;;;;;;5016485;28;20056;-76
2023/11/25 02:46:46;;;;;;;21.23;2.20;;;3.90;99.90;;;;;;5034047;28;20051;-75
2023/11/25 02:49:12;;;;;;;13.77;2.50;;;3.90;99.90;;;;;;5034259;28;20052;-76
2023/11/25 02:51:45;;;;;;;14.80;2.40;;;3.90;99.90;;;;;;5034309;28;20044;-75
2023/11/25 02:54:11;;;;;;;14.82;2.35;;;4.00;99.90;;;;;;5029880;28;20504;-75
2023/11/25 02:56:36;;;;;;;13.30;2.33;;;4.00;99.90;;;;;;5055311;28;20108;-75
2023/11/25 02:59:02;;;;;;;15.13;2.25;;;4.00;99.90;;;;;;5052147;28;20517;-75
2023/11/25 03:01:29;;;;;;;14.10;2.45;;;4.00;99.90;;;;;;5033789;28;20063;-75
2023/11/25 03:03:59;;;;;;;14.27;2.30;;;4.00;99.90;;;;;;5034530;28;20440;-75
2023/11/25 03:06:26;;;;;;;13.02;2.30;;;4.00;99.90;;;;;;5034387;28;20068;-75
2023/11/25 03:08:52;;;;;;;15.52;2.72;;;4.00;99.90;;;;;;5033293;28;20489;-75
2023/11/25 03:11:20;;;;;;;18.08;2.60;;;4.00;99.90;;;;;;5044111;28;20482;-77
2023/11/25 03:13:47;;;;;;;14.07;2.15;;;4.00;99.90;;;;;;5034387;28;20037;-75
2023/11/25 03:16:13;;;;;;;18.48;2.97;;;4.00;99.90;;;;;;5033884;28;20033;-75
2023/11/25 03:18:39;;;;;;;16.20;2.00;;;3.90;99.90;;;;;;5034149;28;20042;-75
2023/11/25 03:21:06;;;;;;;15.30;2.13;;;4.00;99.90;;;;;;5033692;28;20036;-76
2023/11/25 03:23:31;;;;;;;13.90;2.00;;;4.00;99.90;;;;;;5033202;28;20052;-75
2023/11/25 03:25:57;;;;;;;16.85;2.42;;;4.00;99.90;;;;;;5033442;28;20041;-76
2023/11/25 03:28:24;;;;;;;20.45;2.72;;;4.00;99.90;;;;;;5051593;28;20048;-75
2023/11/25 03:30:50;;;;;;;14.32;2.20;;;4.00;99.90;;;;;;5032658;28;20095;-75
2023/11/25 03:33:16;;;;;;;15.40;3.10;;;4.00;99.90;;;;;;5033743;28;20099;-75
2023/11/25 03:35:41;;;;;;;16.25;2.17;;;4.00;99.90;;;;;;5051282;28;20509;-75
2023/11/25 03:38:08;;;;;;;11.98;2.28;;;4.00;99.90;;;;;;5035897;28;20119;-75
2023/11/25 03:40:34;;;;;;;17.38;2.67;;;4.10;99.90;;;;;;5032619;28;20502;-74
2023/11/25 03:42:59;;;;;;;15.50;2.53;;;4.10;99.90;;;;;;5033928;28;20033;-74
2023/11/25 03:45:26;;;;;;;18.95;2.33;;;4.20;99.90;;;;;;5033292;28;20111;-74
2023/11/25 03:47:53;;;;;;;15.45;2.28;;;4.20;99.90;;;;;;5033304;28;20385;-74
2023/11/25 03:50:19;;;;;;;14.60;2.10;;;4.20;99.90;;;;;;5033391;28;20078;-74
2023/11/25 03:52:45;;;;;;;14.27;2.65;;;4.30;99.90;;;;;;5032837;28;20048;-74
2023/11/25 03:55:11;;;;;;;15.55;2.60;;;4.30;99.90;;;;;;5051140;28;20528;-74
2023/11/25 03:57:38;;;;;;;13.27;2.20;;;4.30;99.90;;;;;;5032875;28;20033;-75
2023/11/25 04:00:14;;;;;;;13.38;1.83;;;4.40;99.90;;;;;;5051044;28;20032;-75
2023/11/25 04:02:45;;;;;;;11.82;1.83;;;4.40;99.90;;;;;;5033557;28;20074;-74
2023/11/25 04:05:11;;;;;;;9.02;2.38;;;4.50;99.90;;;;;;5050486;28;20037;-75
2023/11/25 04:07:37;;;;;;;10.50;1.75;;;4.50;99.90;;;;;;5034519;28;20040;-74
2023/11/25 04:10:15;;;;;;;10.73;1.30;;;4.70;99.90;;;;;;5050484;28;20043;-75
2023/11/25 04:12:48;;;;;;;10.23;1.33;;;4.70;99.90;;;;;;5033194;28;20378;-75
2023/11/25 04:15:20;;;;;;;5.25;1.30;;;4.70;99.90;;;;;;5030505;28;20408;-74
2023/11/25 04:17:46;;;;;;;9.25;1.48;;;4.80;99.90;;;;;;5032973;28;20048;-74
2023/11/25 04:20:14;;;;;;;7.10;1.05;;;4.80;99.90;;;;;;5032661;28;20037;-75
2023/11/25 04:22:44;;;;;;;4.78;1.00;;;4.80;99.90;;;;;;5032833;28;20041;-75
2023/11/25 04:25:14;;;;;;;6.30;1.10;;;4.80;99.90;;;;;;5050439;28;20033;-75
2023/11/25 04:27:44;;;;;;;4.18;1.02;;;4.90;99.90;;;;;;5034273;28;20044;-75
2023/11/25 04:30:11;;;;;;;7.55;0.75;;;4.90;99.90;;;;;;5051851;22;20071;-73
2023/11/25 04:32:39;;;;;;;5.72;1.00;;;4.90;99.90;;;;;;5065948;28;20124;-73
2023/11/25 04:35:06;;;;;;;6.68;0.95;;;4.90;99.90;;;;;;5041015;28;20028;-73
2023/11/25 04:37:32;;;;;;;2.97;0.80;;;4.90;99.90;;;;;;5025382;28;20114;-74
2023/11/25 04:39:58;;;;;;;4.38;0.60;;;4.90;99.90;;;;;;5060835;28;20056;-73
2023/11/25 04:42:23;;;;;;;2.78;0.70;;;4.90;99.90;;;;;;5062197;28;20056;-73
2023/11/25 04:44:49;;;;;;;2.10;0.57;;;4.80;99.90;;;;;;5056041;28;20044;-73
2023/11/25 04:47:15;;;;;;;3.65;0.68;;;4.80;99.90;;;;;;5054172;28;20829;-73
2023/11/25 04:49:40;;;;;;;3.08;0.70;;;4.80;99.90;;;;;;5022631;28;20046;-73
2023/11/25 04:52:06;;;;;;;3.88;0.98;;;4.80;99.90;;;;;;5072147;28;20055;-73
2023/11/25 04:54:32;;;;;;;2.55;0.60;;;4.80;99.90;;;;;;5040738;28;20040;-73
2023/11/25 04:56:58;;;;;;;1.63;0.55;;;4.80;99.90;;;;;;5032818;28;20464;-73
2023/11/25 04:59:24;;;;;;;6.30;0.65;;;4.70;99.90;;;;;;5045140;28;20044;-74
2023/11/25 05:01:49;;;;;;;1.27;0.45;;;4.70;99.90;;;;;;5034115;28;20446;-73
2023/11/25 05:04:15;;;;;;;2.75;0.65;;;4.70;99.90;;;;;;5074717;28;20500;-73
2023/11/25 05:06:42;;;;;;;2.40;0.50;;;4.60;99.90;;;;;;5037506;28;20091;-73
2023/11/25 05:09:13;;;;;;;3.70;0.57;;;4.60;99.90;;;;;;5045451;28;20052;-73
2023/11/25 05:11:40;;;;;;;3.60;0.65;;;4.60;99.90;;;;;;5046982;28;20044;-73
2023/11/25 05:14:08;;;;;;;4.25;0.63;;;4.50;99.90;;;;;;5051176;28;20048;-72
2023/11/25 05:16:37;;;;;;;5.45;0.80;;;4.40;99.90;;;;;;5055144;28;20036;-73
2023/11/25 05:19:05;;;;;;;3.25;0.50;;;4.40;99.90;;;;;;5023776;28;20044;-73
2023/11/25 05:21:30;;;;;;;2.33;0.50;;;4.30;99.90;;;;;;5059998;28;20045;-74
2023/11/25 05:23:56;;;;;;;3.75;0.70;;;4.20;99.90;;;;;;5026838;28;20049;-74
2023/11/25 05:26:23;;;;;;;5.03;0.77;;;4.10;99.90;;;;;;5024852;28;20037;-74
2023/11/25 05:28:49;;;;;;;5.25;0.73;;;4.80;99.90;;;;;;5038399;28;20079;-73
2023/11/25 05:31:15;;;;;;;3.75;0.45;;;4.00;99.90;;;;;;5041611;28;20048;-72
2023/11/25 05:33:46;;;;;;;4.55;0.85;;;3.90;99.90;;;;;;5056046;28;20048;-73
2023/11/25 05:36:11;;;;;;;3.30;0.68;;;3.90;99.90;;;;;;5057866;28;20041;-73
2023/11/25 05:38:39;;;;;;;3.88;0.73;;;3.90;99.90;;;;;;5062053;28;20044;-74
2023/11/25 05:41:04;;;;;;;2.00;0.60;;;3.90;99.90;;;;;;5022007;28;20044;-73
2023/11/25 05:43:30;;;;;;;4.30;0.80;;;3.90;99.90;;;;;;5022097;28;20056;-73
2023/11/25 05:45:58;;;;;;;3.75;0.95;;;3.90;99.90;;;;;;5055180;28;20508;-74
2023/11/25 05:48:26;;;;;;;3.30;0.65;;;4.00;99.90;;;;;;5040956;28;20033;-73
2023/11/25 05:50:52;;;;;;;6.18;1.20;;;4.00;99.90;;;;;;5060665;28;20037;-73
2023/11/25 05:53:18;;;;;;;3.70;0.82;;;4.00;99.90;;;;;;5068407;28;20157;-73
2023/11/25 05:55:43;;;;;;;7.65;0.98;;;4.10;99.90;;;;;;5072314;28;20439;-73
2023/11/25 05:58:09;;;;;;;9.95;1.35;;;4.20;99.90;;;;;;5054747;28;20040;-74
2023/11/25 06:00:35;;;;;;;10.55;1.35;;;4.20;99.90;;;;;;5070546;28;20047;-73
2023/11/25 06:03:04;;;;;;;9.88;1.55;;;4.30;99.90;;;;;;5039223;28;20029;-73
2023/11/25 06:05:29;;;;;;;7.15;1.20;;;4.40;99.90;;;;;;5070144;28;20062;-72
2023/11/25 06:07:55;;;;;;;6.70;1.20;;;4.40;99.90;;;;;;5037219;28;20490;-73
2023/11/25 06:10:21;;;;;;;3.70;0.90;;;4.40;99.90;;;;;;5054172;28;20154;-73
2023/11/25 06:12:46;;;;;;;4.38;0.88;;;4.50;99.90;;;;;;5044440;28;20040;-74
2023/11/25 06:15:14;;;;;;;9.80;1.58;;;4.50;99.90;;;;;;5043293;28;20056;-73
2023/11/25 06:17:45;;;;;;;8.02;1.20;;;4.50;99.90;;;;;;5064662;28;20409;-73
2023/11/25 06:20:11;;;;;;;3.55;0.90;;;4.60;99.90;;;;;;5072220;28;20048;-74
2023/11/25 06:22:37;;;;;;;7.75;1.02;;;4.60;99.90;;;;;;5029432;28;20048;-75
2023/11/25 06:25:05;;;;;;;9.35;1.40;;;4.60;99.90;;;;;;5059420;28;20518;-73
2023/11/25 06:27:31;;;;;;;6.10;0.85;;;4.60;99.90;;;;;;5028106;28;20052;-73
2023/11/25 06:29:58;;;;;;;7.47;1.00;;;4.50;99.90;;;;;;5073161;28;20410;-74
2023/11/25 06:32:28;;;;;;;6.18;1.20;;;4.50;99.90;;;;;;5041249;28;20051;-74
2023/11/25 06:34:56;;;;;;;8.27;1.00;;;4.50;99.90;;;;;;5050339;28;20043;-75
2023/11/25 06:37:23;;;;;;;7.28;0.98;;;4.40;99.90;;;;;;5046001;28;20047;-73
2023/11/25 06:39:48;;;;;;;4.32;0.82;;;4.40;99.90;;;;;;5041778;28;20051;-74
2023/11/25 06:42:14;;;;;;;6.25;1.10;;;4.40;99.90;;;;;;5053491;28;20497;-73
2023/11/25 06:44:41;;;;;;;4.65;0.90;;;4.40;99.90;;;;;;5053408;28;20086;-72
2023/11/25 06:47:07;;;;;;;4.43;1.08;;;4.40;99.90;;;;;;5069295;28;20047;-73
2023/11/25 06:49:36;;;;;;;7.28;0.70;;;4.30;99.90;;;;;;5040165;28;20791;-73
2023/11/25 06:52:03;;;;;;;4.80;1.40;;;4.30;99.90;;;;;;5040045;28;20044;-73
2023/11/25 06:54:31;;;;;;;7.47;1.30;;;4.30;99.90;;;;;;5059503;28;20045;-73
2023/11/25 06:56:56;;;;;;;5.80;1.27;;;4.20;99.90;;;;;;5058604;28;20041;-73
2023/11/25 06:59:22;;;;;;;7.38;1.05;;;4.20;99.90;;;;;;5041093;28;20068;-73
2023/11/25 07:01:47;;;;;;;6.90;1.42;;;4.10;99.90;;;;;;5068276;28;20067;-73
2023/11/25 07:04:18;;;;;;;7.40;1.20;;;4.10;99.90;;;;;;5030015;28;20754;-73
2023/11/25 07:06:43;;;;;;;6.25;1.50;;;4.10;99.90;;;;;;5051698;28;20044;-73
2023/11/25 07:09:09;;;;;;;9.00;1.70;;;4.10;99.90;;;;;;5070592;28;20040;-72
2023/11/25 07:11:35;;;;;;;8.80;1.40;;;4.00;99.90;;;;;;5069635;28;20098;-72
2023/11/25 07:14:01;;;;;;;6.85;1.30;;;4.70;99.90;;;;;;5037442;28;20213;-73
2023/11/25 07:16:26;;;;;;;10.18;1.73;;;4.10;99.90;;;;;;5053232;28;20177;-73
2023/11/25 07:18:52;;;;;;;7.88;1.17;;;4.10;99.90;;;;;;5052432;28;20770;-74
2023/11/25 07:21:18;;;;;;;8.02;1.52;;;4.20;99.90;;;;;;5058670;28;20052;-73
2023/11/25 07:23:44;;;;;;;7.80;1.40;;;4.20;99.90;;;;;;5048152;28;20045;-73
2023/11/25 07:26:14;;;;;;;11.85;1.80;;;4.20;99.90;;;;;;5064704;28;20048;-73
2023/11/25 07:28:42;;;;;;;10.88;1.70;;;4.20;99.90;;;;;;5064081;28;20066;-73
2023/11/25 07:31:09;;;;;;;8.23;1.38;;;4.30;99.90;;;;;;5049769;28;20045;-73
2023/11/25 07:33:35;;;;;;;6.15;1.02;;;4.30;99.90;;;;;;5045309;28;20048;-74
2023/11/25 07:36:06;;;;;;;5.60;1.45;;;4.40;99.90;;;;;;5073531;28;20099;-73
2023/11/25 07:38:32;;;;;;;10.85;1.45;;;4.40;99.90;;;;;;5071859;28;20036;-74
2023/11/25 07:40:58;;;;;;;6.03;1.52;;;4.50;99.90;;;;;;5068332;28;20111;-73
2023/11/25 07:43:24;;;;;;;7.97;1.20;;;4.50;99.90;;;;;;5053791;28;20117;-73
2023/11/25 07:45:51;;;;;;;7.32;1.30;;;4.50;99.90;;;;;;5049676;28;20032;-74
2023/11/25 07:48:17;;;;;;;4.30;1.50;;;4.50;99.90;;;;;;5066750;28;20106;-73
2023/11/25 07:50:45;;;;;;;10.18;1.60;;;5.00;99.90;;;;;;5044386;28;20032;-74
2023/11/25 07:53:11;;;;;;;8.40;1.30;;;4.60;99.90;;;;;;5072134;28;20040;-73
2023/11/25 07:55:38;;;;;;;7.75;1.25;;;4.90;99.90;;;;;;5074754;28;20112;-73
2023/11/25 07:58:05;;;;;;;6.55;1.30;;;4.60;99.90;;;;;;5072125;28;20068;-73
2023/11/25 08:00:31;;;;;;;8.20;1.40;;;4.60;99.90;;;;;;5053271;28;20076;-73
2023/11/25 08:03:02;;;;;;;7.43;1.55;;;4.70;99.90;;;;;;5071256;28;20082;-73
2023/11/25 08:05:30;;;;;;;10.77;2.30;;;5.10;99.90;;;;;;5031481;28;20045;-73
2023/11/25 08:07:56;;;;;;;12.70;4.22;;;5.20;99.90;;;;;;5053722;28;20146;-74
2023/11/25 08:10:23;;;;;;;13.60;3.78;;;4.80;99.90;;;;;;5052906;28;20059;-74
2023/11/25 08:12:49;;;;;;;12.77;4.40;;;4.80;99.90;;;;;;5070591;28;20048;-72
2023/11/25 08:15:15;;;;;;;10.90;2.75;;;4.90;99.90;;;;;;5045477;28;20082;-73
2023/11/25 08:17:42;;;;;;;13.40;5.25;;;4.90;99.90;;;;;;5047509;28;20524;-73
2023/11/25 08:20:11;;;;;;;13.85;7.18;;;4.90;99.90;;;;;;5057369;28;20431;-73
2023/11/25 08:22:38;;;;;;;17.45;8.40;;;5.00;99.90;;;;;;5067115;28;20032;-72
2023/11/25 08:25:07;;;;;;;14.85;6.22;;;5.00;99.90;;;;;;5053997;28;20115;-75
2023/11/25 08:27:37;;;;;;;29.40;18.27;;;5.10;99.90;;;;;;5027830;28;20041;-74
2023/11/25 08:30:13;;;;;;;21.67;9.63;;;5.10;99.90;;;;;;5052471;28;20040;-73
2023/11/25 08:32:42;;;;;;;15.98;4.50;;;5.10;99.90;;;;;;5035569;28;20041;-73
2023/11/25 08:35:09;;;;;;;14.55;5.28;;;5.20;99.90;;;;;;5063973;28;20033;-73
2023/11/25 08:37:41;;;;;;;15.18;3.30;;;5.20;99.90;;;;;;5067809;28;20117;-73
2023/11/25 08:40:15;;;;;;;18.98;3.83;;;5.20;99.90;;;;;;5036189;28;20036;-76
2023/11/25 08:42:44;;;;;;;13.05;4.10;;;5.30;99.90;;;;;;5049512;28;20107;-74
2023/11/25 08:45:15;;;;;;;13.40;4.35;;;5.30;99.90;;;;;;5050334;28;20129;-74
2023/11/25 08:47:42;;;;;;;19.50;6.25;;;5.30;99.90;;;;;;5048197;28;20093;-73
2023/11/25 08:50:10;;;;;;;19.23;5.82;;;5.30;99.90;;;;;;5052233;28;20120;-73
2023/11/25 08:52:38;;;;;;;23.20;12.88;;;5.30;99.90;;;;;;5051267;28;20110;-73
2023/11/25 08:55:08;;;;;;;21.38;10.63;;;5.30;99.90;;;;;;5051003;28;20045;-73
2023/11/25 08:57:36;;;;;;;20.92;7.35;;;5.30;99.90;;;;;;5072472;28;20063;-73
2023/11/25 09:00:07;;;;;;;19.85;8.40;;;5.40;99.90;;;;;;5067161;28;20044;-73
2023/11/25 09:02:33;;;;;;;29.90;13.23;;;5.50;99.90;;;;;;5053216;28;20106;-73
2023/11/25 09:04:59;;;;;;;37.22;20.45;;;5.50;99.90;;;;;;5030864;28;20588;-74
2023/11/25 09:07:24;;;;;;;26.33;14.88;;;5.50;99.90;;;;;;5069337;28;20569;-73
2023/11/25 09:09:50;;;;;;;21.75;7.55;;;5.60;99.90;;;;;;5055388;28;20040;-72
2023/11/25 09:12:16;;;;;;;12.55;3.70;;;5.50;99.90;;;;;;5044977;28;20135;-73
2023/11/25 09:14:44;;;;;;;16.83;4.30;;;5.50;99.90;;;;;;5062329;28;20040;-73
2023/11/25 09:17:15;;;;;;;16.33;6.40;;;5.50;99.90;;;;;;5035550;28;20389;-73
2023/11/25 09:19:41;;;;;;;15.57;3.40;;;5.40;99.90;;;;;;5071369;28;20053;-73
2023/11/25 09:22:07;;;;;;;10.82;2.55;;;5.40;99.90;;;;;;5071806;28;20041;-72
2023/11/25 09:24:33;;;;;;;14.27;3.72;;;5.50;99.90;;;;;;5051171;28;20055;-73
2023/11/25 09:27:01;;;;;;;10.82;3.20;;;5.50;99.90;;;;;;5056704;28;20057;-73
2023/11/25 09:29:27;;;;;;;13.27;3.42;;;5.50;99.90;;;;;;5048512;28;20043;-73
2023/11/25 09:31:52;;;;;;;17.55;2.60;;;5.50;99.90;;;;;;5047477;28;20045;-74
2023/11/25 09:34:22;;;;;;;15.70;3.10;;;5.60;99.90;;;;;;5050960;28;20045;-74
2023/11/25 09:36:47;;;;;;;14.50;4.28;;;5.50;99.90;;;;;;5023262;28;20492;-74
2023/11/25 09:39:14;;;;;;;21.00;7.03;;;5.60;99.90;;;;;;5066342;28;20043;-75
2023/11/25 09:41:40;;;;;;;16.38;4.68;;;5.60;99.90;;;;;;5068316;28;20033;-73
2023/11/25 09:44:08;;;;;;;15.73;5.43;;;5.60;99.90;;;;;;5055884;28;20057;-76
2023/11/25 09:46:37;;;;;;;21.02;5.20;;;5.60;99.90;;;;;;5055346;28;20501;-75
2023/11/25 09:49:03;;;;;;;15.85;3.95;;;5.70;99.90;;;;;;5055681;28;20033;-73
2023/11/25 09:51:32;;;;;;;15.57;3.38;;;5.70;99.90;;;;;;5078828;28;20143;-73
2023/11/25 09:54:07;;;;;;;20.83;6.63;;;5.80;99.90;;;;;;5034775;28;20094;-74
2023/11/25 09:56:36;;;;;;;16.50;6.80;;;5.80;99.90;;;;;;5049350;28;20029;-75
2023/11/25 09:59:03;;;;;;;15.50;7.90;;;6.00;99.90;;;;;;5070243;28;20037;-73
2023/11/25 10:01:29;;;;;;;25.65;11.77;;;6.10;99.90;;;;;;5036958;28;20045;-73
2023/11/25 10:03:57;;;;;;;18.83;8.15;;;6.10;99.90;;;;;;5050823;28;20087;-73
2023/11/25 10:06:22;;;;;;;15.98;5.38;;;6.20;99.90;;;;;;5052968;28;20040;-73
2023/11/25 10:08:48;;;;;;;17.70;3.72;;;6.20;99.90;;;;;;5070659;28;20117;-73
2023/11/25 10:11:14;;;;;;;12.85;3.92;;;6.30;99.90;;;;;;5058121;28;20036;-73
2023/11/25 10:13:42;;;;;;;12.55;3.08;;;6.20;99.90;;;;;;5071883;28;20444;-72
2023/11/25 10:16:09;;;;;;;14.63;2.97;;;6.30;99.90;;;;;;5067190;28;20045;-73
2023/11/25 10:18:43;;;;;;;20.25;3.40;;;6.20;99.90;;;;;;5062943;28;20085;-74
2023/11/25 10:21:15;;;;;;;12.02;2.30;;;6.20;99.90;;;;;;5073953;28;20097;-75
2023/11/25 10:23:43;;;;;;;13.35;2.22;;;6.20;99.90;;;;;;5046552;28;20517;-72
2023/11/25 10:26:09;;;;;;;13.10;2.17;;;6.30;99.90;;;;;;5065464;28;20119;-73
2023/11/25 10:28:35;;;;;;;17.48;3.83;;;6.20;99.90;;;;;;5039393;28;20075;-72
2023/11/25 10:31:05;;;;;;;13.10;4.97;;;6.30;99.90;;;;;;5082594;22;20098;-77
2023/11/25 10:33:31;;;;;;;20.27;6.35;;;6.30;99.90;;;;;;5044271;28;20060;-77
2023/11/25 10:35:58;;;;;;;12.18;7.88;;;6.30;99.90;;;;;;5052405;28;20097;-77
2023/11/25 10:38:27;;;;;;;19.90;11.00;;;6.40;99.90;;;;;;5053727;28;20040;-76
2023/11/25 10:41:03;;;;;;;27.77;15.15;;;6.40;99.90;;;;;;5039045;28;20541;-77
2023/11/25 10:43:33;;;;;;;15.88;5.53;;;6.40;99.90;;;;;;5037363;28;20041;-77
2023/11/25 10:46:08;;;;;;;17.40;8.60;;;6.50;99.90;;;;;;5040638;28;20036;-76
2023/11/25 10:48:34;;;;;;;21.00;9.63;;;6.50;99.90;;;;;;5057034;28;20037;-77
2023/11/25 10:51:01;;;;;;;23.25;11.52;;;6.50;99.90;;;;;;5027627;28;20127;-75
2023/11/25 10:53:30;;;;;;;18.85;9.60;;;6.60;99.90;;;;;;5027751;28;20052;-78
2023/11/25 10:55:58;;;;;;;24.17;12.45;;;6.60;99.90;;;;;;5032626;28;20703;-77
2023/11/25 10:58:27;;;;;;;18.08;6.53;;;6.70;99.90;;;;;;5026378;28;20064;-78
2023/11/25 11:00:54;;;;;;;15.23;5.75;;;6.70;99.90;;;;;;5034552;28;20184;-77
2023/11/25 11:03:48;;;;;;;18.73;5.70;;;6.70;99.90;;;;;;5039215;28;20040;-77
2023/11/25 11:06:22;;;;;;;13.32;4.90;;;6.70;99.90;;;;;;5027892;28;20045;-77
2023/11/25 11:08:50;;;;;;;19.85;7.35;;;6.80;99.90;;;;;;5034226;28;20045;-77
2023/11/25 11:11:24;;;;;;;18.25;7.68;;;6.80;99.90;;;;;;5057089;28;20036;-77
2023/11/25 11:14:10;;;;;;;13.15;4.85;;;6.80;99.90;;;;;;5033547;28;20057;-77
2023/11/25 11:16:59;;;;;;;13.63;4.75;;;6.80;99.90;;;;;;5029043;28;20037;-81
2023/11/25 11:19:34;;;;;;;17.45;6.85;;;6.80;99.90;;;;;;5032684;28;20080;-78
2023/11/25 11:22:07;;;;;;;16.83;6.68;;;6.80;99.90;;;;;;5032668;28;20037;-79
2023/11/25 11:24:52;;;;;;;13.82;4.30;;;6.80;99.90;;;;;;5051693;28;20113;-78
2023/11/25 11:27:24;;;;;;;15.13;4.20;;;6.80;99.90;;;;;;5022233;28;20056;-78
2023/11/25 11:30:00;;;;;;;20.35;8.15;;;6.90;99.90;;;;;;5035383;28;20067;-77
2023/11/25 11:32:33;;;;;;;27.63;8.20;;;7.00;99.90;;;;;;5039814;28;20049;-77
2023/11/25 11:34:58;;;;;;;14.95;6.85;;;7.00;99.90;;;;;;5020580;28;20048;-81
2023/11/25 11:37:37;;;;;;;18.98;3.45;;;7.00;99.90;;;;;;5055050;28;20041;-77
2023/11/25 11:40:05;;;;;;;15.07;2.58;;;7.00;99.90;;;;;;5034053;28;20032;-77
2023/11/25 11:42:34;;;;;;;11.75;2.47;;;7.00;99.90;;;;;;5050317;28;20049;-77
2023/11/25 11:45:15;;;;;;;13.70;2.17;;;7.00;99.90;;;;;;5034678;28;20485;-77
2023/11/25 11:47:57;;;;;;;15.57;2.80;;;7.00;99.90;;;;;;5033528;28;20075;-77
2023/11/25 11:50:29;;;;;;;14.05;2.60;;;7.10;99.90;;;;;;5033337;28;20102;-77
2023/11/25 11:53:00;;;;;;;15.43;2.20;;;7.10;99.90;;;;;;5043537;28;20044;-79
2023/11/25 11:55:38;;;;;;;13.73;2.63;;;7.10;99.90;;;;;;5038875;28;20063;-77
2023/11/25 11:58:05;;;;;;;10.75;2.00;;;7.20;99.90;;;;;;5017879;28;20116;-76
2023/11/25 12:00:34;;;;;;;10.38;2.00;;;7.20;99.90;;;;;;5033913;28;20041;-77
2023/11/25 12:03:00;;;;;;;11.13;1.70;;;7.10;99.90;;;;;;5038796;28;20132;-76
2023/11/25 12:05:26;;;;;;;12.52;2.00;;;7.20;99.90;;;;;;5036082;28;20182;-77
2023/11/25 12:07:52;;;;;;;9.13;1.60;;;7.20;99.90;;;;;;5050864;28;20075;-77
2023/11/25 12:10:19;;;;;;;7.63;1.40;;;7.20;99.90;;;;;;5034079;28;20049;-77
2023/11/25 12:12:44;;;;;;;8.90;1.67;;;7.20;99.90;;;;;;5033902;28;20056;-76
2023/11/25 12:15:10;;;;;;;8.05;1.52;;;7.30;99.90;;;;;;5039245;28;20516;-77
2023/11/25 12:17:36;;;;;;;7.80;1.40;;;7.30;99.90;;;;;;5033726;28;20032;-76
2023/11/25 12:20:02;;;;;;;5.47;1.00;;;7.40;99.90;;;;;;5029853;28;20040;-77
2023/11/25 12:22:28;;;;;;;5.43;0.98;;;7.40;99.90;;;;;;5033438;28;20045;-77
2023/11/25 12:24:54;;;;;;;6.22;0.90;;;7.40;99.90;;;;;;5027035;28;20102;-77
2023/11/25 12:27:23;;;;;;;4.97;0.95;;;7.40;99.90;;;;;;5016813;28;20508;-77
2023/11/25 12:29:49;;;;;;;1.40;0.77;;;7.30;99.90;;;;;;5037136;28;20040;-78
2023/11/25 12:32:15;;;;;;;4.25;0.70;;;7.40;99.90;;;;;;5034688;28;20045;-77
2023/11/25 12:34:41;;;;;;;4.35;1.17;;;7.50;99.90;;;;;;5032395;28;20469;-78
2023/11/25 12:37:07;;;;;;;4.38;0.82;;;7.50;99.90;;;;;;5033444;28;20041;-78
2023/11/25 12:39:37;;;;;;;7.50;1.40;;;7.70;99.90;;;;;;5032983;28;20039;-77
2023/11/25 12:42:03;;;;;;;7.20;1.20;;;7.80;99.90;;;;;;5026224;28;20594;-78
2023/11/25 12:44:50;;;;;;;5.80;1.23;;;7.90;99.90;;;;;;5016148;28;20055;-78
2023/11/25 12:47:15;;;;;;;9.73;1.40;;;8.20;99.90;;;;;;5027690;28;20045;-78
2023/11/25 12:49:42;;;;;;;8.93;1.52;;;8.40;99.90;;;;;;5030089;28;20041;-77
2023/11/25 12:52:23;;;;;;;9.57;1.92;;;8.70;99.90;;;;;;5037202;28;20147;-77